createdAt,value
2017-01-14T00:00:08.759Z,0
2017-01-14T00:01:08.403Z,0
2017-01-14T00:02:08.411Z,0
2017-01-14T00:03:08.627Z,0
2017-01-14T00:04:08.803Z,0
2017-01-14T00:05:08.407Z,0
2017-01-14T00:06:08.439Z,0
2017-01-14T00:07:08.695Z,0
2017-01-14T00:08:08.394Z,0
2017-01-14T00:09:08.579Z,0
2017-01-14T00:10:08.384Z,0
2017-01-14T00:11:08.624Z,0
2017-01-14T00:12:08.434Z,0
2017-01-14T00:13:08.385Z,0
2017-01-14T00:14:08.750Z,0
2017-01-14T00:15:08.660Z,0
2017-01-14T00:16:08.568Z,0
2017-01-14T00:17:08.492Z,0
2017-01-14T00:18:08.452Z,0
2017-01-14T00:19:08.508Z,0
2017-01-14T00:20:08.454Z,0
2017-01-14T00:21:08.759Z,0
2017-01-14T00:22:08.638Z,0
2017-01-14T00:23:09.375Z,0
2017-01-14T00:24:08.501Z,0
2017-01-14T00:25:08.379Z,0
2017-01-14T00:26:09.277Z,0
2017-01-14T00:27:08.480Z,0
2017-01-14T00:28:08.382Z,0
2017-01-14T00:29:08.512Z,0
2017-01-14T00:30:08.590Z,0
2017-01-14T00:31:08.460Z,0
2017-01-14T00:32:08.466Z,0
2017-01-14T00:33:08.732Z,0
2017-01-14T00:34:08.726Z,0
2017-01-14T00:35:08.477Z,0
2017-01-14T00:36:08.396Z,0
2017-01-14T00:37:08.542Z,0
2017-01-14T00:38:08.545Z,0
2017-01-14T00:39:08.367Z,0
2017-01-14T00:40:08.613Z,0
2017-01-14T00:41:08.428Z,0
2017-01-14T00:42:08.411Z,0
2017-01-14T00:43:08.442Z,0
2017-01-14T00:44:08.467Z,0
2017-01-14T00:45:08.499Z,0
2017-01-14T00:46:08.642Z,0
2017-01-14T00:47:08.409Z,0
2017-01-14T00:48:08.545Z,0
2017-01-14T00:49:08.379Z,0
2017-01-14T00:50:08.556Z,0
2017-01-14T00:51:08.391Z,0
2017-01-14T00:52:08.536Z,0
2017-01-14T00:53:08.407Z,0
2017-01-14T00:54:08.703Z,0
2017-01-14T00:55:08.480Z,0
2017-01-14T00:56:08.444Z,0
2017-01-14T00:57:08.439Z,0
2017-01-14T00:58:08.513Z,0
2017-01-14T00:59:08.488Z,0
2017-01-14T01:00:08.409Z,0
2017-01-14T01:01:08.412Z,0
2017-01-14T01:02:08.393Z,0
2017-01-14T01:03:08.951Z,0
2017-01-14T01:04:08.540Z,0
2017-01-14T01:05:08.628Z,0
2017-01-14T01:06:08.445Z,0
2017-01-14T01:07:08.622Z,0
2017-01-14T01:08:08.436Z,0
2017-01-14T01:09:08.456Z,0
2017-01-14T01:10:08.437Z,0
2017-01-14T01:11:08.519Z,0
2017-01-14T01:12:08.502Z,0
2017-01-14T01:13:08.456Z,0
2017-01-14T01:14:08.508Z,0
2017-01-14T01:15:08.439Z,0
2017-01-14T01:16:08.555Z,0
2017-01-14T01:17:08.506Z,0
2017-01-14T01:18:08.506Z,0
2017-01-14T01:19:08.436Z,0
2017-01-14T01:20:08.454Z,0
2017-01-14T01:21:08.695Z,0
2017-01-14T01:22:08.454Z,0
2017-01-14T01:23:08.433Z,0
2017-01-14T01:24:08.470Z,0
2017-01-14T01:25:08.445Z,0
2017-01-14T01:26:08.450Z,0
2017-01-14T01:27:08.882Z,0
2017-01-14T01:28:08.437Z,0
2017-01-14T01:29:08.435Z,0
2017-01-14T01:30:09.226Z,0
2017-01-14T01:31:08.453Z,0
2017-01-14T01:32:08.447Z,0
2017-01-14T01:33:08.424Z,0
2017-01-14T01:34:08.410Z,0
2017-01-14T01:35:08.422Z,0
2017-01-14T01:36:08.416Z,0
2017-01-14T01:37:08.660Z,0
2017-01-14T01:38:08.428Z,0
2017-01-14T01:39:08.442Z,0
2017-01-14T01:40:08.568Z,0
2017-01-14T01:41:08.539Z,0
2017-01-14T01:42:08.446Z,0
2017-01-14T01:43:08.541Z,0
2017-01-14T01:44:08.544Z,0
2017-01-14T01:45:08.433Z,0
2017-01-14T01:46:08.571Z,0
2017-01-14T01:47:08.500Z,0
2017-01-14T01:48:08.454Z,0
2017-01-14T01:49:08.463Z,0
2017-01-14T01:50:08.424Z,0
2017-01-14T01:51:08.488Z,0
2017-01-14T01:52:08.478Z,0
2017-01-14T01:53:08.590Z,0
2017-01-14T01:54:08.535Z,0
2017-01-14T01:55:08.487Z,0
2017-01-14T01:56:08.522Z,0
2017-01-14T01:57:08.601Z,0
2017-01-14T01:58:08.434Z,0
2017-01-14T01:59:08.423Z,0
2017-01-14T02:00:08.758Z,0
2017-01-14T02:01:08.569Z,0
2017-01-14T02:02:08.516Z,0
2017-01-14T02:03:08.478Z,0
2017-01-14T02:04:08.561Z,0
2017-01-14T02:05:08.428Z,0
2017-01-14T02:06:08.648Z,0
2017-01-14T02:07:08.564Z,0
2017-01-14T02:08:08.544Z,0
2017-01-14T02:09:08.464Z,0
2017-01-14T02:10:08.438Z,0
2017-01-14T02:11:08.564Z,0
2017-01-14T02:12:08.437Z,0
2017-01-14T02:13:08.521Z,0
2017-01-14T02:14:08.588Z,0
2017-01-14T02:15:08.598Z,0
2017-01-14T02:16:08.581Z,0
2017-01-14T02:17:08.465Z,0
2017-01-14T02:18:08.448Z,0
2017-01-14T02:19:08.431Z,0
2017-01-14T02:20:08.450Z,0
2017-01-14T02:21:08.551Z,0
2017-01-14T02:22:08.566Z,0
2017-01-14T02:23:08.476Z,0
2017-01-14T02:24:08.639Z,0
2017-01-14T02:25:08.856Z,0
2017-01-14T02:26:08.619Z,0
2017-01-14T02:27:08.453Z,0
2017-01-14T02:28:08.590Z,0
2017-01-14T02:29:08.444Z,0
2017-01-14T02:30:08.459Z,0
2017-01-14T02:31:08.606Z,0
2017-01-14T02:32:08.473Z,0
2017-01-14T02:33:08.433Z,0
2017-01-14T02:34:08.610Z,0
2017-01-14T02:35:08.860Z,0
2017-01-14T02:36:08.479Z,0
2017-01-14T02:37:08.483Z,0
2017-01-14T02:38:08.625Z,0
2017-01-14T02:39:08.467Z,0
2017-01-14T02:40:08.474Z,0
2017-01-14T02:41:08.473Z,0
2017-01-14T02:42:08.669Z,0
2017-01-14T02:43:08.567Z,0
2017-01-14T02:44:08.503Z,0
2017-01-14T02:45:08.690Z,0
2017-01-14T02:46:08.644Z,0
2017-01-14T02:47:08.511Z,0
2017-01-14T02:48:08.697Z,0
2017-01-14T02:49:08.702Z,0
2017-01-14T02:50:11.225Z,0
2017-01-14T02:51:14.043Z,0
2017-01-14T02:52:08.839Z,0
2017-01-14T02:53:16.114Z,0
2017-01-14T02:54:08.590Z,0
2017-01-14T02:55:08.639Z,0
2017-01-14T02:56:08.628Z,0
2017-01-14T02:57:08.547Z,0
2017-01-14T02:58:08.475Z,0
2017-01-14T02:59:08.465Z,0
2017-01-14T03:00:08.519Z,0
2017-01-14T03:01:09.067Z,0
2017-01-14T03:02:08.614Z,0
2017-01-14T03:03:08.589Z,0
2017-01-14T03:04:08.510Z,0
2017-01-14T03:05:08.477Z,0
2017-01-14T03:06:08.614Z,0
2017-01-14T03:07:08.572Z,0
2017-01-14T03:08:08.700Z,0
2017-01-14T03:09:08.505Z,0
2017-01-14T03:10:08.871Z,0
2017-01-14T03:11:08.546Z,0
2017-01-14T03:12:08.581Z,0
2017-01-14T03:13:08.506Z,0
2017-01-14T03:14:08.537Z,0
2017-01-14T03:15:08.595Z,0
2017-01-14T03:16:08.596Z,0
2017-01-14T03:17:08.501Z,0
2017-01-14T03:18:08.576Z,0
2017-01-14T03:19:08.652Z,0
2017-01-14T03:20:08.524Z,0
2017-01-14T03:21:08.524Z,0
2017-01-14T03:22:08.667Z,0
2017-01-14T03:23:08.622Z,0
2017-01-14T03:24:08.806Z,0
2017-01-14T03:25:08.532Z,0
2017-01-14T03:26:08.700Z,0
2017-01-14T03:27:08.505Z,0
2017-01-14T03:28:08.502Z,0
2017-01-14T03:29:08.477Z,0
2017-01-14T03:30:08.607Z,0
2017-01-14T03:31:08.484Z,0
2017-01-14T03:32:08.491Z,0
2017-01-14T03:33:08.527Z,0
2017-01-14T03:34:08.580Z,0
2017-01-14T03:35:08.675Z,0
2017-01-14T03:36:08.583Z,0
2017-01-14T03:37:08.506Z,0
2017-01-14T03:38:08.526Z,0
2017-01-14T03:39:08.568Z,0
2017-01-14T03:40:08.534Z,0
2017-01-14T03:41:08.511Z,0
2017-01-14T03:42:08.540Z,0
2017-01-14T03:43:08.503Z,0
2017-01-14T03:44:08.504Z,0
2017-01-14T03:45:08.529Z,0
2017-01-14T03:46:08.497Z,0
2017-01-14T03:47:08.569Z,0
2017-01-14T03:48:08.527Z,0
2017-01-14T03:49:08.519Z,0
2017-01-14T03:50:08.505Z,0
2017-01-14T03:51:08.545Z,0
2017-01-14T03:52:08.508Z,0
2017-01-14T03:53:08.523Z,0
2017-01-14T03:54:08.499Z,0
2017-01-14T03:55:08.510Z,0
2017-01-14T03:56:08.529Z,0
2017-01-14T03:57:08.521Z,0
2017-01-14T03:58:08.539Z,0
2017-01-14T03:59:08.519Z,0
2017-01-14T04:00:08.523Z,0
2017-01-14T04:01:08.519Z,0
2017-01-14T04:02:08.526Z,0
2017-01-14T04:03:08.508Z,0
2017-01-14T04:04:08.494Z,0
2017-01-14T04:05:08.546Z,0
2017-01-14T04:06:08.520Z,0
2017-01-14T04:07:08.533Z,0
2017-01-14T04:08:08.545Z,0
2017-01-14T04:09:08.522Z,0
2017-01-14T04:10:08.545Z,0
2017-01-14T04:11:08.513Z,0
2017-01-14T04:12:08.527Z,0
2017-01-14T04:13:08.527Z,0
2017-01-14T04:14:08.540Z,0
2017-01-14T04:15:08.526Z,0
2017-01-14T04:16:08.522Z,0
2017-01-14T04:17:08.532Z,0
2017-01-14T04:18:08.534Z,0
2017-01-14T04:19:08.539Z,0
2017-01-14T04:20:08.535Z,0
2017-01-14T04:21:08.577Z,0
2017-01-14T04:22:08.527Z,0
2017-01-14T04:23:08.537Z,0
2017-01-14T04:24:08.556Z,0
2017-01-14T04:25:08.536Z,0
2017-01-14T04:26:08.561Z,0
2017-01-14T04:27:08.531Z,0
2017-01-14T04:28:08.579Z,0
2017-01-14T04:29:08.542Z,0
2017-01-14T04:30:08.565Z,0
2017-01-14T04:31:08.558Z,0
2017-01-14T04:32:08.537Z,0
2017-01-14T04:33:08.532Z,0
2017-01-14T04:34:08.536Z,0
2017-01-14T04:35:08.526Z,0
2017-01-14T04:36:08.541Z,0
2017-01-14T04:37:08.545Z,0
2017-01-14T04:38:08.569Z,0
2017-01-14T04:39:08.539Z,0
2017-01-14T04:40:08.533Z,0
2017-01-14T04:41:08.527Z,0
2017-01-14T04:42:08.545Z,0
2017-01-14T04:43:08.550Z,0
2017-01-14T04:44:08.555Z,0
2017-01-14T04:45:08.561Z,0
2017-01-14T04:46:08.536Z,0
2017-01-14T04:47:08.539Z,0
2017-01-14T04:48:08.560Z,0
2017-01-14T04:49:08.535Z,0
2017-01-14T04:50:08.570Z,0
2017-01-14T04:51:08.565Z,0
2017-01-14T04:52:08.597Z,0
2017-01-14T04:53:08.556Z,0
2017-01-14T04:54:08.543Z,0
2017-01-14T04:55:08.537Z,0
2017-01-14T04:56:08.547Z,0
2017-01-14T04:57:08.546Z,0
2017-01-14T04:58:08.580Z,0
2017-01-14T04:59:08.566Z,0
2017-01-14T05:00:08.555Z,0
2017-01-14T05:01:08.571Z,0
2017-01-14T05:02:08.563Z,0
2017-01-14T05:03:08.584Z,0
2017-01-14T05:04:08.593Z,0
2017-01-14T05:05:08.571Z,0
2017-01-14T05:06:08.557Z,0
2017-01-14T05:07:08.563Z,0
2017-01-14T05:08:08.577Z,0
2017-01-14T05:09:08.568Z,0
2017-01-14T05:10:08.565Z,0
2017-01-14T05:11:08.595Z,0
2017-01-14T05:12:08.576Z,0
2017-01-14T05:13:08.575Z,0
2017-01-14T05:14:08.569Z,0
2017-01-14T05:15:08.592Z,0
2017-01-14T05:16:08.573Z,0
2017-01-14T05:17:08.573Z,0
2017-01-14T05:18:08.555Z,0
2017-01-14T05:19:08.583Z,0
2017-01-14T05:20:08.611Z,0
2017-01-14T05:21:08.579Z,0
2017-01-14T05:22:08.588Z,0
2017-01-14T05:23:08.573Z,0
2017-01-14T05:24:08.598Z,0
2017-01-14T05:25:08.588Z,0
2017-01-14T05:26:08.586Z,0
2017-01-14T05:27:08.572Z,0
2017-01-14T05:28:08.578Z,0
2017-01-14T05:29:08.584Z,0
2017-01-14T05:30:08.609Z,0
2017-01-14T05:31:08.592Z,0
2017-01-14T05:32:08.557Z,0
2017-01-14T05:33:08.608Z,0
2017-01-14T05:34:08.592Z,0
2017-01-14T05:35:08.567Z,0
2017-01-14T05:36:08.577Z,0
2017-01-14T05:37:08.610Z,0
2017-01-14T05:38:08.595Z,0
2017-01-14T05:39:08.596Z,0
2017-01-14T05:40:08.573Z,0
2017-01-14T05:41:08.578Z,0
2017-01-14T05:42:08.586Z,0
2017-01-14T05:43:08.581Z,0
2017-01-14T05:44:08.621Z,0
2017-01-14T05:45:08.607Z,0
2017-01-14T05:46:08.576Z,0
2017-01-14T05:47:08.608Z,0
2017-01-14T05:48:08.592Z,0
2017-01-14T05:49:08.619Z,0
2017-01-14T05:50:08.607Z,0
2017-01-14T05:51:08.591Z,0
2017-01-14T05:52:08.604Z,0
2017-01-14T05:53:08.581Z,0
2017-01-14T05:54:08.623Z,0
2017-01-14T05:55:08.584Z,0
2017-01-14T05:56:08.598Z,0
2017-01-14T05:57:08.606Z,0
2017-01-14T05:58:08.604Z,0
2017-01-14T05:59:08.600Z,0
2017-01-14T06:00:08.623Z,0
2017-01-14T06:01:08.610Z,0
2017-01-14T06:02:08.585Z,0
2017-01-14T06:03:08.589Z,0
2017-01-14T06:04:08.606Z,0
2017-01-14T06:05:08.586Z,0
2017-01-14T06:06:08.602Z,0
2017-01-14T06:07:08.610Z,0
2017-01-14T06:08:08.610Z,0
2017-01-14T06:09:08.678Z,0
2017-01-14T06:10:08.608Z,0
2017-01-14T06:11:08.635Z,0
2017-01-14T06:12:08.629Z,0
2017-01-14T06:13:08.591Z,0
2017-01-14T06:14:08.632Z,0
2017-01-14T06:15:08.626Z,0
2017-01-14T06:16:08.592Z,0
2017-01-14T06:17:08.623Z,0
2017-01-14T06:18:08.595Z,0
2017-01-14T06:19:08.688Z,0
2017-01-14T06:20:08.658Z,0
2017-01-14T06:21:08.603Z,0
2017-01-14T06:22:08.626Z,0
2017-01-14T06:23:08.617Z,0
2017-01-14T06:24:08.616Z,0
2017-01-14T06:25:08.589Z,0
2017-01-14T06:26:08.596Z,0
2017-01-14T06:27:08.603Z,0
2017-01-14T06:28:08.624Z,0
2017-01-14T06:29:08.622Z,0
2017-01-14T06:30:08.622Z,0
2017-01-14T06:31:08.643Z,0
2017-01-14T06:32:08.700Z,0
2017-01-14T06:33:08.628Z,0
2017-01-14T06:34:08.620Z,0
2017-01-14T06:35:08.618Z,0
2017-01-14T06:36:08.617Z,0
2017-01-14T06:37:08.610Z,0
2017-01-14T06:38:08.622Z,0
2017-01-14T06:39:08.644Z,0
2017-01-14T06:40:08.614Z,0
2017-01-14T06:41:08.639Z,0
2017-01-14T06:42:08.634Z,0
2017-01-14T06:43:08.641Z,0
2017-01-14T06:44:08.621Z,0
2017-01-14T06:45:08.636Z,0
2017-01-14T06:46:08.628Z,0
2017-01-14T06:47:08.611Z,0
2017-01-14T06:48:08.667Z,0
2017-01-14T06:49:08.632Z,0
2017-01-14T06:50:08.647Z,0
2017-01-14T06:51:08.629Z,0
2017-01-14T06:52:08.788Z,0
2017-01-14T06:53:08.645Z,0
2017-01-14T06:54:08.663Z,0
2017-01-14T06:55:08.648Z,0
2017-01-14T06:56:08.625Z,0
2017-01-14T06:57:08.637Z,0
2017-01-14T06:58:08.634Z,0
2017-01-14T06:59:08.647Z,0
2017-01-14T07:00:08.657Z,0
2017-01-14T07:01:08.618Z,0
2017-01-14T07:02:08.618Z,0
2017-01-14T07:03:08.639Z,0
2017-01-14T07:04:08.631Z,0
2017-01-14T07:05:08.654Z,0
2017-01-14T07:06:08.641Z,0
2017-01-14T07:07:08.699Z,0
2017-01-14T07:08:08.642Z,0
2017-01-14T07:09:08.650Z,0
2017-01-14T07:10:08.648Z,0
2017-01-14T07:11:08.641Z,0
2017-01-14T07:12:08.714Z,0
2017-01-14T07:13:08.650Z,0
2017-01-14T07:14:08.651Z,0
2017-01-14T07:15:08.648Z,0
2017-01-14T07:16:08.633Z,0
2017-01-14T07:17:08.670Z,0
2017-01-14T07:18:08.639Z,0
2017-01-14T07:19:08.667Z,0
2017-01-14T07:20:08.638Z,0
2017-01-14T07:21:08.658Z,0
2017-01-14T07:22:08.685Z,0
2017-01-14T07:23:08.657Z,0
2017-01-14T07:24:08.669Z,0
2017-01-14T07:25:08.641Z,5
2017-01-14T07:26:08.660Z,5
2017-01-14T07:27:08.647Z,5
2017-01-14T07:28:08.686Z,5
2017-01-14T07:29:08.686Z,5
2017-01-14T07:30:08.666Z,5
2017-01-14T07:31:08.666Z,5
2017-01-14T07:32:08.667Z,5
2017-01-14T07:33:08.668Z,5
2017-01-14T07:34:08.673Z,10
2017-01-14T07:35:08.694Z,10
2017-01-14T07:36:08.657Z,10
2017-01-14T07:37:08.692Z,10
2017-01-14T07:38:08.724Z,10
2017-01-14T07:39:08.702Z,10
2017-01-14T07:40:08.722Z,10
2017-01-14T07:41:08.663Z,15
2017-01-14T07:42:08.670Z,15
2017-01-14T07:43:08.677Z,15
2017-01-14T07:44:08.746Z,15
2017-01-14T07:45:08.688Z,15
2017-01-14T07:46:08.677Z,15
2017-01-14T07:47:08.664Z,15
2017-01-14T07:48:08.656Z,20
2017-01-14T07:49:08.702Z,20
2017-01-14T07:50:08.685Z,20
2017-01-14T07:51:08.675Z,20
2017-01-14T07:52:08.664Z,25
2017-01-14T07:53:08.735Z,25
2017-01-14T07:54:08.725Z,25
2017-01-14T07:55:08.711Z,30
2017-01-14T07:56:08.715Z,30
2017-01-14T07:57:08.657Z,35
2017-01-14T07:58:08.689Z,35
2017-01-14T07:59:08.695Z,35
2017-01-14T08:00:08.694Z,30
2017-01-14T08:01:08.664Z,30
2017-01-14T08:02:08.682Z,30
2017-01-14T08:03:08.663Z,30
2017-01-14T08:04:08.680Z,30
2017-01-14T08:05:08.690Z,30
2017-01-14T08:06:08.711Z,35
2017-01-14T08:07:08.692Z,35
2017-01-14T08:08:08.675Z,35
2017-01-14T08:09:08.701Z,35
2017-01-14T08:10:08.680Z,35
2017-01-14T08:11:08.695Z,40
2017-01-14T08:12:08.681Z,40
2017-01-14T08:13:08.709Z,40
2017-01-14T08:14:08.684Z,40
2017-01-14T08:15:08.692Z,45
2017-01-14T08:16:08.719Z,45
2017-01-14T08:17:08.711Z,45
2017-01-14T08:18:08.692Z,45
2017-01-14T08:19:08.706Z,45
2017-01-14T08:20:08.705Z,45
2017-01-14T08:21:08.715Z,45
2017-01-14T08:22:08.686Z,50
2017-01-14T08:23:08.700Z,50
2017-01-14T08:24:08.683Z,50
2017-01-14T08:25:08.718Z,50
2017-01-14T08:26:08.719Z,55
2017-01-14T08:27:08.805Z,55
2017-01-14T08:28:08.739Z,55
2017-01-14T08:29:08.707Z,55
2017-01-14T08:30:08.702Z,55
2017-01-14T08:31:08.693Z,55
2017-01-14T08:32:08.747Z,55
2017-01-14T08:33:08.705Z,55
2017-01-14T08:34:08.720Z,55
2017-01-14T08:35:08.880Z,55
2017-01-14T08:36:09.815Z,55
2017-01-14T08:37:08.708Z,60
2017-01-14T08:38:08.715Z,60
2017-01-14T08:39:08.703Z,65
2017-01-14T08:40:08.720Z,65
2017-01-14T08:41:08.739Z,70
2017-01-14T08:42:08.718Z,70
2017-01-14T08:43:08.690Z,65
2017-01-14T08:44:08.779Z,70
2017-01-14T08:45:08.710Z,70
2017-01-14T08:46:08.734Z,70
2017-01-14T08:47:08.722Z,70
2017-01-14T08:48:08.719Z,75
2017-01-14T08:49:08.774Z,80
2017-01-14T08:50:08.753Z,80
2017-01-14T08:51:08.718Z,85
2017-01-14T08:52:08.721Z,90
2017-01-14T08:53:08.858Z,95
2017-01-14T08:54:08.836Z,100
2017-01-14T08:55:08.758Z,100
2017-01-14T08:56:08.715Z,105
2017-01-14T08:57:09.192Z,110
2017-01-14T08:58:08.745Z,115
2017-01-14T08:59:08.750Z,125
2017-01-14T09:00:08.746Z,125
2017-01-14T09:01:08.832Z,135
2017-01-14T09:02:08.703Z,130
2017-01-14T09:03:08.883Z,130
2017-01-14T09:04:08.769Z,130
2017-01-14T09:05:08.919Z,125
2017-01-14T09:06:08.761Z,120
2017-01-14T09:07:08.727Z,120
2017-01-14T09:08:09.238Z,120
2017-01-14T09:09:08.797Z,115
2017-01-14T09:10:08.746Z,115
2017-01-14T09:11:10.277Z,115
2017-01-14T09:12:08.758Z,115
2017-01-14T09:13:08.736Z,115
2017-01-14T09:14:09.619Z,110
2017-01-14T09:15:08.745Z,110
2017-01-14T09:16:08.771Z,110
2017-01-14T09:17:08.719Z,110
2017-01-14T09:18:08.763Z,105
2017-01-14T09:19:09.055Z,105
2017-01-14T09:20:08.752Z,105
2017-01-14T09:21:11.303Z,105
2017-01-14T09:22:12.414Z,105
2017-01-14T09:23:13.746Z,110
2017-01-14T09:24:12.588Z,110
2017-01-14T09:25:13.119Z,110
2017-01-14T09:26:13.075Z,110
2017-01-14T09:27:12.623Z,110
2017-01-14T09:28:12.583Z,110
2017-01-14T09:29:17.968Z,110
2017-01-14T09:30:11.737Z,110
2017-01-14T09:31:17.249Z,110
2017-01-14T09:32:12.007Z,115
2017-01-14T09:33:08.762Z,115
2017-01-14T09:34:08.952Z,115
2017-01-14T09:35:08.762Z,110
2017-01-14T09:36:08.878Z,110
2017-01-14T09:37:08.820Z,110
2017-01-14T09:38:08.754Z,110
2017-01-14T09:39:08.769Z,105
2017-01-14T09:40:08.901Z,110
2017-01-14T09:41:08.783Z,105
2017-01-14T09:42:08.772Z,105
2017-01-14T09:43:08.794Z,110
2017-01-14T09:44:08.772Z,110
2017-01-14T09:45:08.872Z,115
2017-01-14T09:46:08.807Z,115
2017-01-14T09:47:08.737Z,115
2017-01-14T09:48:08.852Z,110
2017-01-14T09:49:08.756Z,110
2017-01-14T09:50:08.853Z,105
2017-01-14T09:51:08.882Z,105
2017-01-14T09:52:09.954Z,110
2017-01-14T09:53:08.829Z,110
2017-01-14T09:54:08.928Z,105
2017-01-14T09:55:08.907Z,110
2017-01-14T09:56:09.112Z,105
2017-01-14T09:57:08.906Z,110
2017-01-14T09:58:09.531Z,105
2017-01-14T09:59:08.932Z,100
2017-01-14T10:00:14.110Z,100
2017-01-14T10:01:11.285Z,95
2017-01-14T10:02:21.493Z,90
2017-01-14T10:03:21.576Z,95
2017-01-14T10:04:21.221Z,95
2017-01-14T10:05:21.054Z,90
2017-01-14T10:06:19.624Z,90
2017-01-14T10:07:18.966Z,90
2017-01-14T10:08:21.073Z,85
2017-01-14T10:09:19.845Z,85
2017-01-14T10:10:19.472Z,90
2017-01-14T10:11:22.288Z,90
2017-01-14T10:12:22.033Z,90
2017-01-14T10:13:20.229Z,90
2017-01-14T10:14:19.470Z,90
2017-01-14T10:15:18.110Z,90
2017-01-14T10:16:19.913Z,95
2017-01-14T10:17:19.215Z,95
2017-01-14T10:18:15.160Z,95
2017-01-14T10:19:17.922Z,95
2017-01-14T10:20:16.512Z,95
2017-01-14T10:21:10.563Z,100
2017-01-14T10:22:08.927Z,100
2017-01-14T10:23:08.873Z,100
2017-01-14T10:24:09.379Z,100
2017-01-14T10:25:09.147Z,105
2017-01-14T10:26:08.809Z,105
2017-01-14T10:27:08.875Z,105
2017-01-14T10:28:09.288Z,105
2017-01-14T10:29:09.083Z,105
2017-01-14T10:30:08.791Z,115
2017-01-14T10:31:09.648Z,130
2017-01-14T10:32:08.775Z,125
2017-01-14T10:33:08.780Z,115
2017-01-14T10:34:08.873Z,120
2017-01-14T10:35:08.933Z,130
2017-01-14T10:36:08.793Z,115
2017-01-14T10:37:08.841Z,125
2017-01-14T10:38:08.795Z,110
2017-01-14T10:39:09.069Z,110
2017-01-14T10:40:08.802Z,110
2017-01-14T10:41:09.423Z,110
2017-01-14T10:42:08.980Z,110
2017-01-14T10:43:08.799Z,110
2017-01-14T10:44:08.790Z,115
2017-01-14T10:45:09.009Z,115
2017-01-14T10:46:08.912Z,115
2017-01-14T10:47:08.795Z,115
2017-01-14T10:48:08.817Z,115
2017-01-14T10:49:08.927Z,115
2017-01-14T10:50:08.859Z,120
2017-01-14T10:51:08.819Z,115
2017-01-14T10:52:08.945Z,110
2017-01-14T10:53:08.835Z,105
2017-01-14T10:54:08.820Z,105
2017-01-14T10:55:08.909Z,105
2017-01-14T10:56:09.004Z,105
2017-01-14T10:57:08.803Z,100
2017-01-14T10:58:08.870Z,100
2017-01-14T10:59:09.069Z,95
2017-01-14T11:00:08.808Z,95
2017-01-14T11:01:08.804Z,95
2017-01-14T11:02:09.041Z,95
2017-01-14T11:03:08.850Z,95
2017-01-14T11:04:08.819Z,95
2017-01-14T11:05:09.782Z,95
2017-01-14T11:06:08.877Z,100
2017-01-14T11:07:08.929Z,95
2017-01-14T11:08:08.825Z,90
2017-01-14T11:09:08.830Z,90
2017-01-14T11:10:08.923Z,100
2017-01-14T11:11:08.947Z,125
2017-01-14T11:12:10.309Z,125
2017-01-14T11:13:08.854Z,120
2017-01-14T11:14:08.920Z,115
2017-01-14T11:15:09.096Z,110
2017-01-14T11:16:08.876Z,115
2017-01-14T11:17:08.802Z,125
2017-01-14T11:18:08.837Z,145
2017-01-14T11:19:08.819Z,155
2017-01-14T11:20:08.843Z,135
2017-01-14T11:21:08.960Z,125
2017-01-14T11:22:08.900Z,130
2017-01-14T11:23:08.825Z,135
2017-01-14T11:24:08.824Z,140
2017-01-14T11:25:09.204Z,130
2017-01-14T11:26:08.880Z,125
2017-01-14T11:27:09.054Z,120
2017-01-14T11:28:09.021Z,140
2017-01-14T11:29:08.826Z,130
2017-01-14T11:30:08.874Z,130
2017-01-14T11:31:09.232Z,145
2017-01-14T11:32:08.838Z,120
2017-01-14T11:33:09.012Z,135
2017-01-14T11:34:08.954Z,140
2017-01-14T11:35:08.976Z,130
2017-01-14T11:36:08.845Z,125
2017-01-14T11:37:08.833Z,135
2017-01-14T11:38:09.007Z,140
2017-01-14T11:39:08.809Z,150
2017-01-14T11:40:08.957Z,135
2017-01-14T11:41:08.837Z,110
2017-01-14T11:42:09.017Z,95
2017-01-14T11:43:08.867Z,95
2017-01-14T11:44:08.836Z,90
2017-01-14T11:45:08.833Z,90
2017-01-14T11:46:08.984Z,95
2017-01-14T11:47:08.891Z,90
2017-01-14T11:48:09.056Z,80
2017-01-14T11:49:08.826Z,90
2017-01-14T11:50:08.868Z,100
2017-01-14T11:51:08.860Z,110
2017-01-14T11:52:08.826Z,130
2017-01-14T11:53:08.884Z,140
2017-01-14T11:54:08.911Z,160
2017-01-14T11:55:08.860Z,160
2017-01-14T11:56:08.874Z,140
2017-01-14T11:57:08.983Z,140
2017-01-14T11:58:09.000Z,140
2017-01-14T11:59:09.121Z,140
2017-01-14T12:00:09.121Z,135
2017-01-14T12:01:09.048Z,130
2017-01-14T12:02:08.920Z,140
2017-01-14T12:03:08.992Z,125
2017-01-14T12:04:08.902Z,130
2017-01-14T12:05:08.867Z,120
2017-01-14T12:06:08.884Z,120
2017-01-14T12:07:08.937Z,125
2017-01-14T12:08:09.089Z,130
2017-01-14T12:09:09.009Z,125
2017-01-14T12:10:09.451Z,115
2017-01-14T12:11:08.852Z,115
2017-01-14T12:12:08.851Z,110
2017-01-14T12:13:08.856Z,105
2017-01-14T12:14:08.848Z,110
2017-01-14T12:15:08.883Z,110
2017-01-14T12:16:08.879Z,110
2017-01-14T12:17:08.854Z,110
2017-01-14T12:18:08.901Z,110
2017-01-14T12:19:08.931Z,110
2017-01-14T12:20:08.894Z,105
2017-01-14T12:21:08.879Z,115
2017-01-14T12:22:09.009Z,120
2017-01-14T12:23:08.853Z,125
2017-01-14T12:24:08.945Z,120
2017-01-14T12:25:08.855Z,120
2017-01-14T12:26:08.859Z,115
2017-01-14T12:27:08.887Z,130
2017-01-14T12:28:08.910Z,130
2017-01-14T12:29:08.859Z,130
2017-01-14T12:30:08.990Z,130
2017-01-14T12:31:08.954Z,135
2017-01-14T12:32:08.883Z,140
2017-01-14T12:33:08.869Z,140
2017-01-14T12:34:08.899Z,135
2017-01-14T12:35:08.884Z,130
2017-01-14T12:36:09.026Z,130
2017-01-14T12:37:08.891Z,135
2017-01-14T12:38:08.869Z,135
2017-01-14T12:39:09.024Z,115
2017-01-14T12:40:08.894Z,115
2017-01-14T12:41:08.871Z,120
2017-01-14T12:42:10.277Z,120
2017-01-14T12:43:08.928Z,120
2017-01-14T12:44:09.051Z,120
2017-01-14T12:45:11.240Z,130
2017-01-14T12:46:19.973Z,120
2017-01-14T12:47:21.432Z,110
2017-01-14T12:48:19.092Z,110
2017-01-14T12:49:19.373Z,125
2017-01-14T12:50:19.889Z,125
2017-01-14T12:51:19.305Z,105
2017-01-14T12:52:17.687Z,100
2017-01-14T12:53:18.644Z,90
2017-01-14T12:54:18.938Z,90
2017-01-14T12:55:15.724Z,110
2017-01-14T12:56:15.959Z,110
2017-01-14T12:57:13.506Z,110
2017-01-14T12:58:08.914Z,95
2017-01-14T12:59:08.923Z,80
2017-01-14T13:00:09.124Z,80
2017-01-14T13:01:09.374Z,90
2017-01-14T13:02:09.348Z,95
2017-01-14T13:03:08.989Z,85
2017-01-14T13:04:08.940Z,80
2017-01-14T13:05:08.955Z,100
2017-01-14T13:06:08.950Z,75
2017-01-14T13:07:09.035Z,70
2017-01-14T13:08:08.934Z,60
2017-01-14T13:09:08.942Z,60
2017-01-14T13:10:09.043Z,80
2017-01-14T13:11:09.328Z,95
2017-01-14T13:12:09.258Z,95
2017-01-14T13:13:09.000Z,90
2017-01-14T13:14:08.919Z,95
2017-01-14T13:15:09.228Z,90
2017-01-14T13:16:09.003Z,100
2017-01-14T13:17:09.249Z,105
2017-01-14T13:18:12.840Z,95
2017-01-14T13:19:09.016Z,80
2017-01-14T13:20:08.948Z,90
2017-01-14T13:21:08.913Z,85
2017-01-14T13:22:08.947Z,95
2017-01-14T13:23:09.066Z,95
2017-01-14T13:24:09.018Z,105
2017-01-14T13:25:08.941Z,105
2017-01-14T13:26:08.985Z,100
2017-01-14T13:27:09.123Z,95
2017-01-14T13:28:08.923Z,80
2017-01-14T13:29:09.195Z,60
2017-01-14T13:30:09.144Z,65
2017-01-14T13:31:09.341Z,75
2017-01-14T13:32:09.011Z,85
2017-01-14T13:33:09.342Z,100
2017-01-14T13:34:09.085Z,95
2017-01-14T13:35:09.113Z,120
2017-01-14T13:36:09.225Z,125
2017-01-14T13:37:09.117Z,120
2017-01-14T13:38:09.169Z,145
2017-01-14T13:39:09.089Z,140
2017-01-14T13:40:08.998Z,155
2017-01-14T13:41:09.344Z,155
2017-01-14T13:42:09.197Z,130
2017-01-14T13:43:09.184Z,115
2017-01-14T13:44:09.056Z,85
2017-01-14T13:45:09.352Z,60
2017-01-14T13:46:08.992Z,60
2017-01-14T13:47:09.136Z,70
2017-01-14T13:48:09.251Z,75
2017-01-14T13:49:08.985Z,80
2017-01-14T13:50:08.986Z,75
2017-01-14T13:51:09.373Z,70
2017-01-14T13:52:09.306Z,80
2017-01-14T13:53:09.095Z,70
2017-01-14T13:54:09.261Z,80
2017-01-14T13:55:09.148Z,80
2017-01-14T13:56:09.320Z,65
2017-01-14T13:57:09.232Z,45
2017-01-14T13:58:08.986Z,40
2017-01-14T13:59:09.265Z,40
2017-01-14T14:00:09.229Z,35
2017-01-14T14:01:09.603Z,30
2017-01-14T14:02:09.140Z,35
2017-01-14T14:03:09.095Z,30
2017-01-14T14:04:09.150Z,30
2017-01-14T14:05:09.104Z,30
2017-01-14T14:07:09.862Z,45
2017-01-14T14:08:35.586Z,50
2017-01-14T14:10:01.806Z,40
2017-01-14T14:11:29.180Z,40
2017-01-14T14:12:54.401Z,35
2017-01-14T14:14:22.157Z,35
2017-01-14T14:15:48.337Z,30
2017-01-14T14:17:14.882Z,30
2017-01-14T14:18:39.160Z,25
2017-01-14T14:20:01.711Z,20
2017-01-14T14:21:26.641Z,25
2017-01-14T14:22:53.168Z,20
2017-01-14T14:24:20.040Z,15
2017-01-14T14:25:46.087Z,15
2017-01-14T14:27:14.043Z,20
2017-01-14T14:28:39.185Z,15
2017-01-14T14:30:05.971Z,15
2017-01-14T14:31:31.983Z,10